Impacts TAF Board
For situational awareness. Not to be used for flight planning purposes.
IDs:

KCLE - Cleveland/Hopkins In, OH, US

Issued at 0250 UTC 23 Oct 2018
Updated at 0340 UTC 23 Oct 2018
Potential Impact None Slight Moderate High
Time<<24/04Z 24/05Z 24/06Z 24/07Z 24/08Z 24/09Z 24/10Z 24/11Z 24/12Z 24/13Z 24/14Z 24/15Z 24/16Z
Type PRVL PRVL
VIS >6 >6
CIG 30 30
Cover OVC OVC
FltCat MVFR MVFR
WX -- --
WDir 320 320
WSpd 12 12
WGst -- --
Raw TAF
KCLE 230250Z 2303/2406 24008KT P6SM SCT250
  FM231500 30014G27KT P6SM BKN035
  FM240100 32012KT P6SM OVC030


METAR Board
Radar Display
Forecast Discussion
For situational awareness. Not to be used for flight planning purposes.